Time;durP1;ratioP1;P1;durP2;ratioP2;P2;SDS_P1;SDS_P2;PMS_P1;PMS_P2;Temp;Humidity;BMP_temperature;BMP_pressure;BME280_temperature;BME280_humidity;BME280_pressure;Samples;Min_cycle;Max_cycle;Signal;HPM_P1;HPM_P2
2021/10/13 00:01:38;;;;;;;7.27;4.47;;;;;;;5.39;100.00;94041.38;5073027;28;20203;-76
2021/10/13 00:04:05;;;;;;;10.73;5.73;;;;;;;5.41;100.00;94039.44;5062617;28;20203;-76
2021/10/13 00:06:31;;;;;;;12.67;6.93;;;;;;;5.43;100.00;94044.44;5056686;28;20203;-76
2021/10/13 00:08:58;;;;;;;13.33;5.93;;;;;;;5.43;100.00;94036.69;5056630;28;20230;-76
2021/10/13 00:11:25;;;;;;;15.00;6.50;;;;;;;5.46;100.00;94046.72;5059686;28;20227;-76
2021/10/13 00:13:52;;;;;;;13.07;7.37;;;;;;;5.48;100.00;94039.59;5066322;28;20199;-76
2021/10/13 00:16:18;;;;;;;12.93;7.20;;;;;;;5.48;100.00;94048.19;5056616;28;20199;-76
2021/10/13 00:18:45;;;;;;;14.17;8.30;;;;;;;5.50;100.00;94043.66;5056445;28;20207;-76
2021/10/13 00:21:11;;;;;;;14.97;8.20;;;;;;;5.48;100.00;94052.53;5056397;28;20215;-76
2021/10/13 00:23:38;;;;;;;18.57;10.17;;;;;;;5.45;100.00;94045.91;5056351;28;20203;-76
2021/10/13 00:26:04;;;;;;;15.27;9.20;;;;;;;5.43;100.00;94047.88;5056181;28;20276;-76
2021/10/13 00:28:32;;;;;;;19.20;9.97;;;;;;;5.46;100.00;94046.72;5056423;28;20207;-76
2021/10/13 00:30:58;;;;;;;16.13;9.73;;;;;;;5.45;100.00;94045.91;5056225;28;20280;-76
2021/10/13 00:33:24;;;;;;;16.33;8.67;;;;;;;5.44;100.00;94052.06;5056342;28;20546;-76
2021/10/13 00:35:51;;;;;;;19.60;9.20;;;;;;;5.40;100.00;94050.78;5056201;28;20203;-76
2021/10/13 00:38:17;;;;;;;15.90;8.20;;;;;;;5.38;100.00;94055.31;5056004;28;20199;-76
2021/10/13 00:40:44;;;;;;;17.13;8.30;;;;;;;5.31;100.00;94055.16;5055954;28;20203;-76
2021/10/13 00:43:10;;;;;;;15.63;8.17;;;;;;;5.25;100.00;94060.16;5056224;28;20245;-76
2021/10/13 00:45:38;;;;;;;15.77;8.70;;;;;;;5.24;100.00;94061.13;5055988;28;20260;-76
2021/10/13 00:48:05;;;;;;;17.63;8.80;;;;;;;5.23;100.00;94068.09;5055782;28;20661;-76
2021/10/13 00:50:31;;;;;;;17.93;8.73;;;;;;;5.22;100.00;94070.81;5055631;28;20801;-76
2021/10/13 00:52:58;;;;;;;15.63;8.23;;;;;;;5.15;100.00;94071.47;5055728;28;20249;-76
2021/10/13 00:55:24;;;;;;;13.83;7.37;;;;;;;5.17;100.00;94066.94;5069820;28;20226;-76
2021/10/13 00:57:52;;;;;;;16.77;8.60;;;;;;;5.22;100.00;94076.00;5076004;28;20252;-75
2021/10/13 01:00:22;;;;;;;19.07;9.17;;;;;;;5.22;100.00;94086.34;5075734;28;20264;-77
2021/10/13 01:03:00;;;;;;;15.03;8.07;;;;;;;5.21;100.00;94088.13;5075703;28;20209;-76
2021/10/13 01:05:46;;;;;;;17.97;8.77;;;;;;;5.22;100.00;94081.19;5075789;28;20732;-76
2021/10/13 01:08:18;;;;;;;17.48;9.82;;;;;;;5.24;100.00;94077.44;5075270;28;20559;-76
2021/10/13 01:10:54;;;;;;;18.33;8.90;;;;;;;5.27;100.00;94079.72;5075700;28;20636;-76
2021/10/13 01:13:28;;;;;;;17.57;7.97;;;;;;;5.28;100.00;94073.59;5075142;28;20607;-76
2021/10/13 01:16:04;;;;;;;13.53;7.90;;;;;;;5.28;100.00;94072.75;5075177;28;20202;-77
2021/10/13 01:18:40;;;;;;;18.23;9.53;;;;;;;5.26;100.00;94072.94;5075596;28;20209;-76
2021/10/13 01:21:15;;;;;;;21.85;10.15;;;;;;;5.27;100.00;94081.50;5075198;28;20465;-76
2021/10/13 01:23:58;;;;;;;17.73;8.47;;;;;;;5.28;100.00;94077.94;5075346;28;20661;-76
2021/10/13 01:26:32;;;;;;;18.63;9.20;;;;;;;5.29;100.00;94076.97;5075212;28;20202;-76
2021/10/13 01:29:03;;;;;;;15.13;9.03;;;;;;;5.30;100.00;94078.59;5075469;28;20207;-77
2021/10/13 01:31:36;;;;;;;16.83;8.57;;;;;;;5.28;100.00;94086.53;5075326;28;20230;-76
2021/10/13 01:34:08;;;;;;;22.50;9.27;;;;;;;5.28;100.00;94088.28;5075220;28;20248;-76
2021/10/13 01:36:39;;;;;;;23.47;9.33;;;;;;;5.28;100.00;94090.88;5075128;28;20252;-76
2021/10/13 01:39:07;;;;;;;18.30;9.77;;;;;;;5.32;100.00;94087.81;5074854;28;20298;-76
2021/10/13 01:41:35;;;;;;;21.40;10.13;;;;;;;5.31;100.00;94093.97;5075092;28;20210;-76
2021/10/13 01:44:05;;;;;;;18.43;10.13;;;;;;;5.24;100.00;94105.91;5074904;28;20206;-76
2021/10/13 01:46:33;;;;;;;17.70;8.97;;;;;;;5.27;100.00;94100.44;5074956;28;20248;-76
2021/10/13 01:49:03;;;;;;;17.70;10.63;;;;;;;5.20;100.00;94114.97;5074745;28;20195;-76
2021/10/13 01:51:30;;;;;;;17.83;9.70;;;;;;;5.11;100.00;94115.91;5074560;28;20222;-76
2021/10/13 01:53:58;;;;;;;20.03;10.43;;;;;;;5.13;100.00;94125.16;5074699;28;20199;-76
2021/10/13 01:56:27;;;;;;;22.73;11.70;;;;;;;5.11;100.00;94127.09;5074825;28;20205;-76
2021/10/13 01:58:56;;;;;;;20.30;10.93;;;;;;;5.07;100.00;94124.97;5074590;28;20206;-76
2021/10/13 02:01:28;;;;;;;22.10;11.50;;;;;;;5.05;100.00;94132.09;5074379;28;20203;-76
2021/10/13 02:03:57;;;;;;;24.23;11.73;;;;;;;5.05;100.00;94127.72;5074267;28;20195;-76
2021/10/13 02:06:25;;;;;;;17.20;9.90;;;;;;;4.96;100.00;94123.47;5074677;28;20260;-76
2021/10/13 02:08:54;;;;;;;19.53;9.93;;;;;;;4.94;100.00;94130.59;5074457;28;20256;-76
2021/10/13 02:11:23;;;;;;;20.43;11.27;;;;;;;4.91;100.00;94138.66;5074166;28;20231;-76
2021/10/13 02:13:51;;;;;;;22.07;10.87;;;;;;;4.95;100.00;94142.56;5074065;28;20600;-76
2021/10/13 02:16:19;;;;;;;21.40;10.90;;;;;;;4.92;100.00;94148.06;5074220;28;20203;-76
2021/10/13 02:18:47;;;;;;;20.57;10.50;;;;;;;4.95;100.00;94145.97;5074015;28;20252;-76
2021/10/13 02:21:16;;;;;;;22.90;10.80;;;;;;;4.87;100.00;94152.91;5074530;28;20253;-76
2021/10/13 02:23:43;;;;;;;20.87;11.23;;;;;;;4.88;100.00;94151.91;5073885;28;20592;-75
2021/10/13 02:26:15;;;;;;;22.00;11.13;;;;;;;4.89;100.00;94153.53;5073737;28;20199;-76
2021/10/13 02:28:47;;;;;;;21.83;10.97;;;;;;;4.91;100.00;94167.13;5074108;28;20206;-76
2021/10/13 02:31:13;;;;;;;18.33;10.33;;;;;;;4.88;100.00;94172.59;5073842;28;20231;-76
2021/10/13 02:33:40;;;;;;;19.93;10.73;;;;;;;4.85;100.00;94172.94;5074026;28;20280;-76
2021/10/13 02:36:07;;;;;;;28.80;11.47;;;;;;;4.87;100.00;94176.19;5073908;28;20256;-76
2021/10/13 02:38:34;;;;;;;20.60;10.57;;;;;;;4.86;100.00;94184.88;5073730;28;20199;-76
2021/10/13 02:41:00;;;;;;;18.97;10.33;;;;;;;4.87;100.00;94181.34;5073876;28;20202;-76
2021/10/13 02:43:27;;;;;;;19.63;9.90;;;;;;;4.84;100.00;94187.63;5073736;28;20352;-76
2021/10/13 02:45:59;;;;;;;13.60;8.30;;;;;;;4.75;100.00;94186.00;5073857;28;20202;-76
2021/10/13 02:48:30;;;;;;;18.97;8.03;;;;;;;4.74;100.00;94182.56;5073006;28;20195;-76
2021/10/13 02:51:03;;;;;;;14.13;7.93;;;;;;;4.75;100.00;94181.63;5073561;28;20279;-76
2021/10/13 02:53:37;;;;;;;17.40;8.40;;;;;;;4.64;100.00;94179.28;5073666;28;20253;-76
2021/10/13 02:56:12;;;;;;;17.93;8.67;;;;;;;4.64;100.00;94181.88;5073370;28;20223;-76
2021/10/13 02:58:42;;;;;;;15.73;9.30;;;;;;;4.62;100.00;94194.16;5073675;28;20293;-76
2021/10/13 03:01:14;;;;;;;23.15;11.25;;;;;;;4.62;100.00;94194.16;5072971;28;20438;-76
2021/10/13 03:03:47;;;;;;;18.70;8.50;;;;;;;4.54;100.00;94192.31;5073699;28;20260;-76
2021/10/13 03:06:14;;;;;;;15.70;8.07;;;;;;;4.47;100.00;94196.50;5073379;28;20198;-76
2021/10/13 03:08:42;;;;;;;15.27;7.47;;;;;;;4.42;100.00;94189.19;5073209;28;20584;-76
2021/10/13 03:11:11;;;;;;;13.30;7.83;;;;;;;4.31;100.00;94189.44;5073495;28;20256;-76
2021/10/13 03:13:40;;;;;;;16.13;8.80;;;;;;;4.31;100.00;94192.03;5073055;28;20206;-76
2021/10/13 03:16:09;;;;;;;14.57;7.80;;;;;;;4.17;100.00;94195.19;5073305;28;20198;-76
2021/10/13 03:18:37;;;;;;;15.43;8.33;;;;;;;4.05;100.00;94197.19;5073192;28;20198;-76
2021/10/13 03:21:04;;;;;;;18.60;7.90;;;;;;;3.95;100.00;94197.28;5073183;28;20199;-76
2021/10/13 03:23:31;;;;;;;17.70;8.90;;;;;;;3.89;100.00;94190.13;5073534;28;20202;-76
2021/10/13 03:26:06;;;;;;;18.53;8.93;;;;;;;3.81;100.00;94190.03;5073378;28;20248;-76
2021/10/13 03:28:33;;;;;;;18.70;9.57;;;;;;;3.79;100.00;94191.97;5073262;28;20206;-76
2021/10/13 03:31:00;;;;;;;17.87;8.50;;;;;;;3.69;100.00;94187.69;5073041;28;20252;-76
2021/10/13 03:33:27;;;;;;;15.33;8.47;;;;;;;3.63;100.00;94193.44;5073051;28;20562;-76
2021/10/13 03:35:53;;;;;;;18.53;8.13;;;;;;;3.56;100.00;94191.59;5072927;28;20551;-76
2021/10/13 03:38:19;;;;;;;17.20;8.27;;;;;;;3.50;100.00;94193.00;5075868;28;20202;-77
2021/10/13 03:40:46;;;;;;;20.07;8.47;;;;;;;3.52;100.00;94191.09;5077110;28;20209;-76
2021/10/13 03:43:14;;;;;;;21.53;10.43;;;;;;;3.58;100.00;94185.34;5076929;28;20661;-76
2021/10/13 03:45:40;;;;;;;20.53;8.73;;;;;;;3.49;100.00;94191.38;5077117;28;20198;-76
2021/10/13 03:48:07;;;;;;;27.27;10.27;;;;;;;3.51;100.00;94187.69;5077143;28;20203;-76
2021/10/13 03:50:33;;;;;;;24.77;10.27;;;;;;;3.57;100.00;94188.88;5077355;28;20198;-76
2021/10/13 03:53:00;;;;;;;24.13;9.63;;;;;;;3.58;100.00;94192.25;5077225;28;20229;-76
2021/10/13 03:55:26;;;;;;;26.23;9.50;;;;;;;3.58;100.00;94200.84;5076864;28;20234;-76
2021/10/13 03:57:52;;;;;;;21.47;10.30;;;;;;;3.59;100.00;94201.63;5077036;28;20202;-77
2021/10/13 04:00:22;;;;;;;24.80;11.03;;;;;;;3.55;100.00;94213.19;5076934;28;20256;-76
2021/10/13 04:02:49;;;;;;;18.53;9.53;;;;;;;3.55;100.00;94216.59;5076769;28;20203;-76
2021/10/13 04:05:16;;;;;;;18.40;9.40;;;;;;;3.49;100.00;94225.72;5076963;28;20256;-76
2021/10/13 04:07:43;;;;;;;20.50;9.40;;;;;;;3.46;100.00;94225.22;5076856;28;20233;-76
2021/10/13 04:10:12;;;;;;;19.17;9.10;;;;;;;3.42;100.00;94226.47;5076598;28;20588;-76
2021/10/13 04:12:39;;;;;;;22.60;9.00;;;;;;;3.46;100.00;94230.38;5076496;28;20715;-76
2021/10/13 04:15:07;;;;;;;20.33;9.37;;;;;;;3.50;100.00;94234.31;5076588;28;20225;-76
2021/10/13 04:17:35;;;;;;;19.33;8.77;;;;;;;3.46;100.00;94232.97;5076435;28;20253;-75
2021/10/13 04:20:02;;;;;;;16.23;8.10;;;;;;;3.43;100.00;94233.25;5076557;28;20608;-76
2021/10/13 04:22:29;;;;;;;23.17;8.77;;;;;;;3.48;100.00;94236.19;5076664;28;20225;-76
2021/10/13 04:24:55;;;;;;;18.30;9.00;;;;;;;3.53;100.00;94234.03;5076502;28;20203;-76
2021/10/13 04:27:21;;;;;;;19.37;9.67;;;;;;;3.61;100.00;94230.69;5076244;28;20199;-76
2021/10/13 04:29:48;;;;;;;19.67;9.33;;;;;;;3.69;100.00;94234.16;5076324;28;20257;-76
2021/10/13 04:32:14;;;;;;;24.73;10.83;;;;;;;3.81;100.00;94231.34;5076138;28;20275;-76
2021/10/13 04:34:42;;;;;;;19.97;10.53;;;;;;;3.85;100.00;94243.03;5076266;28;20297;-76
2021/10/13 04:37:08;;;;;;;25.77;11.30;;;;;;;3.87;100.00;94243.69;5076399;28;20607;-76
2021/10/13 04:39:35;;;;;;;24.60;10.43;;;;;;;3.89;100.00;94250.31;5076237;28;20195;-77
2021/10/13 04:42:01;;;;;;;43.10;15.30;;;;;;;3.87;100.00;94251.44;5076116;28;20194;-76
2021/10/13 04:44:27;;;;;;;35.40;13.60;;;;;;;3.87;100.00;94261.78;5075362;28;20199;-76
2021/10/13 04:46:54;;;;;;;35.63;13.90;;;;;;;3.81;100.00;94259.75;5076320;28;20202;-76
2021/10/13 04:49:20;;;;;;;28.10;12.33;;;;;;;3.73;100.00;94255.34;5076352;28;20256;-76
2021/10/13 04:51:48;;;;;;;20.97;10.03;;;;;;;3.57;100.00;94262.94;5076068;28;20248;-76
2021/10/13 04:54:14;;;;;;;17.83;9.57;;;;;;;3.40;100.00;94269.66;5075685;28;20256;-75
2021/10/13 04:56:41;;;;;;;27.80;12.03;;;;;;;3.38;100.00;94266.41;5075964;28;20256;-76
2021/10/13 04:59:07;;;;;;;23.53;9.60;;;;;;;3.31;100.00;94268.75;5075779;28;20603;-76
2021/10/13 05:01:33;;;;;;;14.77;7.80;;;;;;;3.33;100.00;94269.41;5075948;28;20245;-76
2021/10/13 05:04:00;;;;;;;16.90;8.37;;;;;;;3.33;100.00;94272.84;5076043;28;20199;-76
2021/10/13 05:06:26;;;;;;;19.13;8.73;;;;;;;3.33;100.00;94280.56;5075695;28;20199;-76
2021/10/13 05:08:54;;;;;;;21.40;9.67;;;;;;;3.45;100.00;94282.97;5075513;28;20217;-76
2021/10/13 05:11:20;;;;;;;18.47;8.03;;;;;;;3.46;100.00;94280.22;5075490;28;20689;-76
2021/10/13 05:13:47;;;;;;;18.77;8.83;;;;;;;3.51;100.00;94287.53;5075406;28;20248;-76
2021/10/13 05:16:14;;;;;;;17.17;7.97;;;;;;;3.50;100.00;94291.09;5075631;28;20229;-76
2021/10/13 05:18:40;;;;;;;15.00;7.13;;;;;;;3.44;100.00;94292.47;5075568;28;20600;-76
2021/10/13 05:21:07;;;;;;;21.33;8.47;;;;;;;3.38;100.00;94289.66;5075511;28;20202;-76
2021/10/13 05:23:33;;;;;;;18.00;8.33;;;;;;;3.33;100.00;94290.91;5075211;28;20654;-76
2021/10/13 05:26:01;;;;;;;18.33;8.27;;;;;;;3.36;100.00;94296.72;5075132;28;20260;-76
2021/10/13 05:28:28;;;;;;;17.40;8.70;;;;;;;3.40;100.00;94293.72;5075561;28;20228;-76
2021/10/13 05:30:54;;;;;;;18.07;8.63;;;;;;;3.51;100.00;94297.84;5075179;28;20199;-76
2021/10/13 05:33:21;;;;;;;14.13;7.73;;;;;;;3.55;100.00;94295.78;5075197;28;20226;-76
2021/10/13 05:35:47;;;;;;;19.03;8.67;;;;;;;3.61;100.00;94303.78;5075110;28;20203;-76
2021/10/13 05:38:13;;;;;;;18.00;9.07;;;;;;;3.69;100.00;94296.13;5075044;28;20244;-76
2021/10/13 05:40:40;;;;;;;18.23;8.77;;;;;;;3.74;100.00;94294.88;5074780;28;20252;-76
2021/10/13 05:43:08;;;;;;;18.77;9.13;;;;;;;3.79;100.00;94305.59;5075176;28;20248;-76
2021/10/13 05:45:35;;;;;;;21.07;9.40;;;;;;;3.83;100.00;94306.91;5075008;28;20670;-75
2021/10/13 05:48:01;;;;;;;20.23;9.33;;;;;;;3.85;100.00;94305.81;5074922;28;20249;-76
2021/10/13 05:50:28;;;;;;;20.77;9.40;;;;;;;3.93;100.00;94307.69;5074861;28;20203;-76
2021/10/13 05:52:54;;;;;;;21.15;12.10;;;;;;;3.87;100.00;94303.91;5073826;28;20794;-76
2021/10/13 05:55:21;;;;;;;18.27;10.37;;;;;;;3.84;100.00;94308.53;5074334;28;20235;-76
2021/10/13 05:57:47;;;;;;;22.37;10.87;;;;;;;3.86;100.00;94307.47;5074803;28;20256;-76
2021/10/13 06:00:18;;;;;;;41.87;22.23;;;;;;;3.93;100.00;94318.00;5074012;28;20198;-76
2021/10/13 06:02:44;;;;;;;38.93;19.60;;;;;;;4.05;100.00;94321.19;5074472;28;20202;-76
2021/10/13 06:05:11;;;;;;;23.43;11.60;;;;;;;4.13;100.00;94318.69;5074333;28;20245;-76
2021/10/13 06:07:38;;;;;;;27.57;11.53;;;;;;;4.14;100.00;94332.41;5074274;28;20199;-77
2021/10/13 06:10:05;;;;;;;21.07;11.40;;;;;;;4.20;100.00;94339.59;5074097;28;20256;-77
2021/10/13 06:12:31;;;;;;;25.30;11.90;;;;;;;4.17;100.00;94332.91;5074443;28;20231;-76
2021/10/13 06:14:57;;;;;;;23.00;11.10;;;;;;;4.05;100.00;94342.66;5074144;28;20661;-76
2021/10/13 06:17:25;;;;;;;21.00;11.00;;;;;;;3.99;100.00;94343.25;5074394;28;20268;-76
2021/10/13 06:19:51;;;;;;;29.33;11.27;;;;;;;4.07;100.00;94345.91;5074243;28;20202;-76
2021/10/13 06:22:18;;;;;;;28.43;13.00;;;;;;;3.96;100.00;94351.28;5074323;28;20725;-76
2021/10/13 06:24:44;;;;;;;28.23;13.37;;;;;;;-145.69;100.00;72819.44;5074356;28;20198;-76
2021/10/13 06:27:11;;;;;;;28.00;12.37;;;;;;;-145.69;100.00;72811.47;5074206;28;20711;-77
2021/10/13 06:29:37;;;;;;;34.27;13.07;;;;;;;-145.69;100.00;72793.56;5073975;28;20260;-77
2021/10/13 06:32:04;;;;;;;28.53;13.60;;;;;;;-145.69;100.00;72783.59;5074114;28;20238;-76
2021/10/13 06:34:32;;;;;;;23.10;11.00;;;;;;;-145.69;100.00;72791.56;5073891;28;20199;-76
2021/10/13 06:36:58;;;;;;;25.70;12.77;;;;;;;-145.69;100.00;72803.50;5073611;28;20198;-76
2021/10/13 06:39:25;;;;;;;27.50;11.40;;;;;;;-145.69;100.00;72807.47;5073941;28;20206;-76
2021/10/13 06:41:51;;;;;;;22.40;11.73;;;;;;;-145.69;100.00;72815.44;5073763;28;20207;-76
2021/10/13 06:44:18;;;;;;;23.10;11.83;;;;;;;-145.69;100.00;72819.44;5073810;28;20206;-76
2021/10/13 06:46:45;;;;;;;26.37;11.37;;;;;;;-145.69;100.00;72815.44;5073716;28;20210;-76
2021/10/13 06:49:11;;;;;;;26.10;12.40;;;;;;;-145.69;100.00;72807.47;5072912;28;20198;-76
2021/10/13 06:51:39;;;;;;;22.83;11.67;;;;;;;-145.69;100.00;72803.50;5073460;28;20248;-77
2021/10/13 06:54:06;;;;;;;28.83;13.80;;;;;;;-145.69;100.00;72807.47;5073465;28;20198;-76
2021/10/13 06:56:32;;;;;;;27.13;12.57;;;;;;;-145.69;100.00;72803.50;5073508;28;20604;-77
2021/10/13 06:58:58;;;;;;;33.13;13.53;;;;;;;-145.69;100.00;72805.50;5073631;28;20295;-77
2021/10/13 07:01:25;;;;;;;24.40;11.77;;;;;;;-145.69;100.00;72791.56;5073545;28;20198;-76
2021/10/13 07:03:51;;;;;;;32.80;11.67;;;;;;;-145.69;100.00;72785.59;5073547;28;20260;-77
2021/10/13 07:06:18;;;;;;;19.27;10.37;;;;;;;-145.69;100.00;72805.50;5075584;28;20237;-77
2021/10/13 07:08:46;;;;;;;21.93;10.20;;;;;;;-145.69;100.00;72801.50;5078138;28;20731;-77
2021/10/13 07:11:12;;;;;;;20.53;10.00;;;;;;;-145.69;100.00;72819.44;5073389;28;20203;-76
2021/10/13 07:13:39;;;;;;;23.30;9.23;;;;;;;-145.69;100.00;72819.44;5072886;28;20687;-77
2021/10/13 07:16:05;;;;;;;24.70;9.97;;;;;;;-145.69;100.00;72833.38;5073525;28;20207;-77
2021/10/13 07:18:32;;;;;;;20.17;10.33;;;;;;;-145.69;100.00;72839.34;5073189;28;20206;-76
2021/10/13 07:20:58;;;;;;;22.63;10.50;;;;;;;-145.69;100.00;72843.31;5073477;28;20221;-76
2021/10/13 07:23:25;;;;;;;25.00;11.37;;;;;;;-145.69;100.00;72831.38;5073323;28;20248;-77
2021/10/13 07:25:53;;;;;;;22.93;10.77;;;;;;;-145.69;100.00;72831.38;5073179;28;20255;-76
2021/10/13 07:28:19;;;;;;;27.83;10.73;;;;;;;-145.69;100.00;72819.44;5073278;28;20672;-77
2021/10/13 07:30:45;;;;;;;21.40;10.33;;;;;;;-145.69;100.00;72809.47;5073195;28;20206;-77
2021/10/13 07:33:12;;;;;;;20.03;9.67;;;;;;;-145.69;100.00;72779.63;5073142;28;20226;-77
2021/10/13 07:35:38;;;;;;;18.63;9.30;;;;;;;-145.69;100.00;72763.69;5073269;28;20256;-76
2021/10/13 07:38:05;;;;;;;19.30;9.67;;;;;;;-145.69;100.00;72749.75;5072903;28;20604;-77
2021/10/13 07:40:32;;;;;;;20.37;10.37;;;;;;;-145.69;100.00;72777.63;5073279;28;20198;-77
2021/10/13 07:43:00;;;;;;;23.07;8.87;;;;;;;-145.69;100.00;72765.69;5073174;28;20565;-76
2021/10/13 07:45:26;;;;;;;16.20;8.27;;;;;;;-145.69;100.00;72747.78;5072955;28;20601;-77
2021/10/13 07:47:52;;;;;;;16.13;7.80;;;;;;;-145.69;100.00;72719.91;5072937;28;20221;-76
2021/10/13 07:50:19;;;;;;;13.73;7.57;;;;;;;-145.69;100.00;72698.00;5072923;28;20543;-77
2021/10/13 07:52:46;;;;;;;14.40;9.00;;;;;;;-145.69;100.00;72696.00;5072259;28;20458;-76
2021/10/13 07:55:13;;;;;;;17.07;8.57;;;;;;;-145.69;100.00;72721.88;5073048;28;20222;-77
2021/10/13 07:57:39;;;;;;;15.63;7.47;;;;;;;-145.69;100.00;72727.88;5073420;28;20198;-77
2021/10/13 08:00:09;;;;;;;11.10;6.60;;;;;;;-145.69;100.00;72727.88;5073418;28;20202;-77
2021/10/13 08:02:35;;;;;;;12.97;7.03;;;;;;;-145.69;100.00;72684.06;5072797;28;20198;-77
2021/10/13 08:05:02;;;;;;;14.60;6.80;;;;;;;-145.69;100.00;72664.16;5072802;28;20661;-77
2021/10/13 08:07:28;;;;;;;11.10;6.53;;;;;;;-145.69;100.00;72668.16;5073010;28;20248;-77
2021/10/13 08:09:55;;;;;;;16.90;6.57;;;;;;;-145.69;100.00;72658.19;5072814;28;20229;-77
2021/10/13 08:12:21;;;;;;;10.50;5.67;;;;;;;-145.69;100.00;72616.41;5072726;28;20232;-77
2021/10/13 08:14:48;;;;;;;12.20;6.40;;;;;;;-145.69;100.00;72578.56;5072698;28;20199;-76
2021/10/13 08:17:15;;;;;;;15.47;5.63;;;;;;;-145.69;100.00;72598.47;5073046;28;20203;-77
2021/10/13 08:19:42;;;;;;;9.00;5.17;;;;;;;-145.69;100.00;72606.44;5072961;28;20203;-76
2021/10/13 08:22:08;;;;;;;14.43;5.07;;;;;;;-145.69;100.00;72576.59;5072854;28;20604;-76
2021/10/13 08:24:35;;;;;;;7.73;4.53;;;;;;;-145.69;100.00;72552.69;5075433;28;20654;-77
2021/10/13 08:27:03;;;;;;;8.43;4.80;;;;;;;-145.69;100.00;72530.81;5076439;28;20257;-77
2021/10/13 08:29:30;;;;;;;11.40;5.67;;;;;;;-145.69;100.00;72558.66;5076900;28;20202;-77
2021/10/13 08:31:58;;;;;;;8.63;4.70;;;;;;;-145.69;100.00;72540.75;5076568;28;20198;-77
2021/10/13 08:34:25;;;;;;;8.27;4.47;;;;;;;-145.69;100.00;72504.94;5076557;28;20198;-77
2021/10/13 08:36:52;;;;;;;7.67;4.40;;;;;;;-145.69;98.17;72516.88;5076493;28;20203;-77
2021/10/13 08:39:18;;;;;;;7.67;3.63;;;;;;;-145.69;97.41;72512.91;5076191;28;20207;-77
2021/10/13 08:41:46;;;;;;;8.10;3.60;;;;;;;-145.69;95.39;72526.81;5076204;28;20203;-77
2021/10/13 08:44:13;;;;;;;5.83;3.43;;;;;;;-145.69;95.50;72500.94;5075954;28;20209;-77
2021/10/13 08:46:40;;;;;;;5.93;3.10;;;;;;;-145.69;91.43;72465.13;5075434;28;20252;-77
2021/10/13 08:49:06;;;;;;;7.40;3.60;;;;;;;-145.69;95.81;72566.63;5076107;28;20199;-77
2021/10/13 08:51:35;;;;;;;6.63;3.60;;;;;;;-145.69;97.66;72556.69;5075961;28;20276;-77
2021/10/13 08:54:01;;;;;;;5.60;3.60;;;;;;;-145.69;96.70;72536.78;5075498;28;20284;-77
2021/10/13 08:56:28;;;;;;;9.83;3.77;;;;;;;-145.69;98.54;72540.75;5075624;28;20232;-77
2021/10/13 08:58:54;;;;;;;7.63;3.10;;;;;;;-145.69;91.66;72485.03;5075985;28;20202;-77
2021/10/13 09:01:21;;;;;;;10.03;2.77;;;;;;;-145.69;91.28;72467.13;5075939;28;20225;-77
2021/10/13 09:03:49;;;;;;;6.20;3.17;;;;;;;-145.69;92.76;72502.94;5075852;28;20206;-77
2021/10/13 09:06:21;;;;;;;6.03;3.00;;;;;;;-145.69;92.45;72498.97;5075694;28;20268;-77
2021/10/13 09:08:57;;;;;;;9.73;3.03;;;;;;;-145.69;93.68;72439.25;5075744;28;20203;-77
2021/10/13 09:11:34;;;;;;;5.23;2.97;;;;;;;-145.69;90.61;72349.69;5075854;28;20270;-77
2021/10/13 09:14:08;;;;;;;4.10;2.30;;;;;;;-145.69;88.33;72375.56;5075486;28;20230;-77
2021/10/13 09:16:47;;;;;;;5.53;1.93;;;;;;;-145.69;90.25;72457.16;5075548;28;20198;-77
2021/10/13 09:19:13;;;;;;;4.80;2.37;;;;;;;-145.69;90.14;72500.94;5075442;28;20285;-77
2021/10/13 09:21:47;;;;;;;6.83;2.07;;;;;;;-145.69;88.70;72441.25;5075139;28;20256;-78
2021/10/13 09:24:15;;;;;;;5.13;2.03;;;;;;;-145.69;86.63;72455.16;5075437;28;20252;-77
2021/10/13 09:26:42;;;;;;;3.07;1.90;;;;;;;-145.69;90.98;72471.09;5075414;28;20252;-77
2021/10/13 09:29:09;;;;;;;4.43;2.73;;;;;;;-145.69;90.52;72461.13;5075089;28;20604;-77
2021/10/13 09:31:35;;;;;;;4.07;2.33;;;;;;;-145.69;90.83;72469.09;5075187;28;20206;-77
2021/10/13 09:34:05;;;;;;;7.23;2.20;;;;;;;-145.69;91.21;72560.66;5075093;28;20284;-77
2021/10/13 09:36:36;;;;;;;26.00;10.30;;;;;;;-145.69;96.52;72554.69;5074298;28;20279;-77
2021/10/13 09:39:07;;;;;;;11.10;3.03;;;;;;;-145.69;94.73;72530.81;5074875;28;20207;-77
2021/10/13 09:41:55;;;;;;;21.30;7.67;;;;;;;-145.69;99.32;72530.81;5075086;28;20199;-77
2021/10/13 09:44:22;;;;;;;9.93;3.63;;;;;;;-145.69;94.54;72522.84;5074937;28;20615;-77
2021/10/13 09:46:49;;;;;;;6.90;3.07;;;;;;;-145.69;95.80;72522.84;5075090;28;20203;-77
2021/10/13 09:49:27;;;;;;;4.40;2.30;;;;;;;-145.69;91.24;72500.94;5074912;28;20244;-77
2021/10/13 09:52:01;;;;;;;15.40;4.77;;;;;;;-145.69;93.58;72469.09;5074862;28;20289;-77
2021/10/13 09:54:27;;;;;;;30.63;9.80;;;;;;;-145.69;96.02;72502.94;5074535;28;20361;-77
2021/10/13 09:56:55;;;;;;;6.60;2.33;;;;;;;-145.69;93.83;72481.03;5074538;28;20289;-77
2021/10/13 09:59:22;;;;;;;6.03;2.30;;;;;;;-145.69;94.45;72520.84;5074640;28;20654;-78
2021/10/13 10:01:50;;;;;;;5.13;2.23;;;;;;;-145.69;94.10;72491.00;5074475;28;20199;-77
2021/10/13 10:04:19;;;;;;;3.47;2.00;;;;;;;-145.69;91.59;72502.94;5074409;28;20206;-77
2021/10/13 10:06:50;;;;;;;4.47;1.77;;;;;;;-145.69;90.22;72524.84;5074322;28;20207;-77
2021/10/13 10:09:19;;;;;;;5.27;2.23;;;;;;;-145.69;90.67;72528.81;5074141;28;20289;-77
2021/10/13 10:11:47;;;;;;;4.10;1.90;;;;;;;-145.69;92.97;72520.84;5074431;28;20285;-77
2021/10/13 10:14:47;;;;;;;3.63;1.97;;;;;;;-145.69;91.45;72445.22;5074225;28;20238;-78
2021/10/13 10:17:34;;;;;;;5.47;2.13;;;;;;;-145.69;89.73;72391.47;5074151;28;20202;-77
2021/10/13 10:20:00;;;;;;;4.27;2.10;;;;;;;-145.69;84.74;72413.38;5073879;28;20596;-78
2021/10/13 10:22:27;;;;;;;4.23;2.03;;;;;;;-145.69;85.19;72401.44;5074322;28;20203;-78
2021/10/13 10:24:55;;;;;;;2.73;1.87;;;;;;;-145.69;85.76;72387.50;5074068;28;20207;-78
2021/10/13 10:27:27;;;;;;;3.30;1.80;;;;;;;-145.69;83.94;72323.81;5074106;28;20225;-78
2021/10/13 10:30:23;;;;;;;4.60;1.90;;;;;;;-145.69;84.85;72437.25;5073834;28;20650;-77
2021/10/13 10:33:15;;;;;;;4.73;1.80;;;;;;;-145.69;88.24;72407.41;5059950;28;20234;-77
2021/10/13 10:35:43;;;;;;;2.77;1.07;;;;;;;-145.69;75.05;72383.53;5073849;28;20203;-78
2021/10/13 10:38:10;;;;;;;5.23;1.00;;;;;;;-145.69;79.09;72343.72;5074010;28;20290;-77
2021/10/13 10:40:38;;;;;;;3.20;1.33;;;;;;;-145.69;79.41;72345.69;5073756;28;20202;-76
2021/10/13 10:43:07;;;;;;;2.20;1.30;;;;;;;-145.69;79.06;72345.69;5074096;28;20217;-77
2021/10/13 10:45:38;;;;;;;3.00;1.40;;;;;;;-145.69;77.28;72349.69;5073657;28;20199;-76
2021/10/13 10:48:08;;;;;;;5.07;1.17;;;;;;;-145.69;83.21;72369.59;5073753;28;20210;-77
2021/10/13 10:50:39;;;;;;;3.07;1.20;;;;;;;-145.69;78.14;72335.75;5073650;28;20195;-77
2021/10/13 10:53:27;;;;;;;5.30;1.37;;;;;;;-145.69;80.50;72323.81;5073001;28;20229;-77
2021/10/13 10:55:55;;;;;;;2.50;1.30;;;;;;;-145.69;82.28;72287.97;5073293;28;20589;-77
2021/10/13 10:58:25;;;;;;;3.03;1.40;;;;;;;-145.69;79.77;72321.81;5073506;28;20696;-77
2021/10/13 11:01:01;;;;;;;3.17;1.33;;;;;;;-145.69;74.72;72282.00;5073358;28;20572;-77
2021/10/13 11:03:33;;;;;;;2.07;0.87;;;;;;;-145.69;74.17;72242.22;5073459;28;20271;-77
2021/10/13 11:06:11;;;;;;;3.97;1.20;;;;;;;-145.69;71.57;72198.41;5073776;28;20203;-77
2021/10/13 11:08:49;;;;;;;2.70;1.10;;;;;;;-145.69;72.54;72278.03;5073446;28;20294;-78
2021/10/13 11:11:16;;;;;;;1.70;1.10;;;;;;;-145.69;74.39;72254.16;5073422;28;20206;-77
2021/10/13 11:13:55;;;;;;;4.40;1.10;;;;;;;-145.69;76.31;72297.94;5073237;28;20640;-78
2021/10/13 11:16:22;;;;;;;2.77;1.00;;;;;;;-145.69;73.33;72284.00;5073494;28;20203;-77
2021/10/13 11:18:49;;;;;;;2.53;1.20;;;;;;;-145.69;73.44;72325.81;5073386;28;20203;-77
2021/10/13 11:21:15;;;;;;;2.80;0.87;;;;;;;-145.69;77.50;72349.69;5073443;28;20261;-77
2021/10/13 11:23:42;;;;;;;4.23;1.10;;;;;;;-145.69;75.94;72377.53;5073264;28;20561;-77